Flight Track Log - Related Links

Times and Time Zones

All times are in EDT time to prevent confusion due to time zone crossing. See the SWA482 flight status page for this flight to view local times or setup timezone preferences in your user account.

Time Position Orientation Groundspeed Altitude Reporting Facility
EDT Latitude Longitude Course Direction KTS MPH feet Rate Location/Type
Wed 03:29:59 PM 33.6333 -117.9000 North 141 162 2,600  Level Southern California TRACON
Wed 03:31:11 PM 33.5858 -117.8975 177° South 155 178 4,900 2,552 Climbing Los Angeles Center
Wed 03:32:13 PM 33.5225 -117.9364 207° Southwest 245 282 8,300 3,532 Climbing Los Angeles Center
Wed 03:33:15 PM 33.4525 -117.9875 211° Southwest 281 323 12,200 3,919 Climbing Los Angeles Center
Wed 03:34:17 PM 33.3717 -118.0464 211° Southwest 322 371 16,400 3,629 Climbing Los Angeles Center
Wed 03:35:00 PM 33.4174 -118.4167 North  Level FlightAware Approximate
Wed 03:35:19 PM 33.3294 -118.1456 243° Southwest 353 406 19,700  Level Los Angeles Center
Wed 03:36:21 PM 33.3458 -118.2431 281° West 369 425 22,400 3,339 Climbing Los Angeles Center
Wed 03:37:23 PM 33.4025 -118.4033 293° West 388 447 26,600 2,806 Climbing Los Angeles Center
Wed 03:38:25 PM 33.4928 -118.4222 350° North 416 479 28,200 1,984 Climbing Los Angeles Center
Wed 03:39:27 PM 33.6408 -118.4264 359° North 436 502 30,700 2,565 Climbing Los Angeles Center
Wed 03:40:29 PM 33.7733 -118.4283 359° North 449 517 33,500 2,516 Climbing Los Angeles Center
Wed 03:41:31 PM 33.8944 -118.4331 358° North 437 503 35,900 1,887 Climbing Los Angeles Center
Wed 03:42:33 PM 34.0136 -118.4453 355° North 430 495 37,400 1,452 Climbing Los Angeles Center
Wed 03:43:35 PM 34.1342 -118.4667 352° North 436 502 38,900 1,258 Climbing Los Angeles Center
Wed 03:44:37 PM 34.2547 -118.4878 352° North 438 504 40,000 532 Climbing Los Angeles Center
Wed 03:45:39 PM 34.3692 -118.5442 338° Northwest 454 522 40,000  Level Los Angeles Center
Wed 03:46:41 PM 34.5061 -118.6092 339° North 443 510 40,000  Level Los Angeles Center
Wed 03:47:43 PM 34.6186 -118.6653 338° Northwest 440 506 40,000  Level Los Angeles Center
Wed 03:48:45 PM 34.7322 -118.7206 338° Northwest 440 506 40,000  Level Los Angeles Center
Wed 03:49:47 PM 34.8450 -118.7772 338° Northwest 440 506 40,000  Level Los Angeles Center
Wed 03:50:49 PM 34.9561 -118.8328 338° Northwest 440 506 40,000  Level Los Angeles Center
Wed 03:51:51 PM 35.0908 -118.8992 338° Northwest 438 504 40,000  Level Los Angeles Center
Wed 03:52:53 PM 35.2017 -118.9561 337° Northwest 437 503 40,000  Level Los Angeles Center
Wed 03:53:55 PM 35.3147 -119.0114 338° Northwest 439 505 40,000  Level Los Angeles Center
Wed 03:55:09 PM 35.4272 -119.0675 338° Northwest 436 502 40,000  Level Los Angeles Center
Wed 03:56:11 PM 35.5619 -119.1350 338° Northwest 437 503 40,000  Level Los Angeles Center
Wed 03:57:13 PM 35.6953 -119.2028 338° Northwest 436 502 40,000  Level Los Angeles Center
Wed 03:58:15 PM 35.8053 -119.2603 337° Northwest 434 499 40,000  Level Los Angeles Center
Wed 03:59:17 PM 35.9100 -119.3300 332° Northwest 430 495 40,000  Level Los Angeles Center
Wed 04:00:19 PM 36.0150 -119.3994 332° Northwest 429 494 40,000  Level Los Angeles Center
Wed 04:01:21 PM 36.1192 -119.4692 332° Northwest 428 493 40,000  Level Los Angeles Center
Wed 04:02:23 PM 36.2450 -119.5539 332° Northwest 431 496 40,000  Level Los Angeles Center
Wed 04:03:26 PM 36.3506 -119.6244 332° Northwest 432 497 40,000  Level Los Angeles Center
Wed 04:04:28 PM 36.4558 -119.6961 331° Northwest 432 497 40,000  Level Los Angeles Center
Wed 04:05:28 PM 36.5594 -119.7628 333° Northwest 428 493 40,000 -148 Level Oakland Center
Wed 04:06:30 PM 36.6642 -119.8336 332° Northwest 428 493 39,700 -634 Descending Oakland Center
Wed 04:07:31 PM 36.7689 -119.9047 331° Northwest 427 491 38,700 -934 Descending Oakland Center
Wed 04:08:32 PM 36.8717 -119.9733 332° Northwest 419 482 37,800 -1,131 Descending Oakland Center
Wed 04:09:33 PM 36.9747 -120.0456 331° Northwest 425 489 36,400 -2,439 Descending Oakland Center
Wed 04:10:35 PM 37.0886 -120.1231 332° Northwest 426 490 32,800 -2,935 Descending Oakland Center
Wed 04:12:00 PM 37.2237 -120.2008 335° Northwest  Level FlightAware Approximate
Wed 04:12:37 PM 37.2911 -120.2611 335° Northwest 408 470 27,400  Level Oakland Center
Wed 04:13:39 PM 37.3875 -120.3247 332° Northwest 389 448 26,000 -829 Descending Oakland Center
Wed 04:14:40 PM 37.4786 -120.4000 327° Northwest 394 453 25,700 -680 Descending Oakland Center
Wed 04:15:16 PM 37.5500 -120.4667 323° Northwest 395 455 24,900 -1,250 Descending Northern Cal TRACON
Wed 04:16:16 PM 37.6333 -120.5500 322° Northwest 394 453 23,700 -1,605 Descending Northern Cal TRACON
Wed 04:16:42 PM 37.6667 -120.5897 317° Northwest 391 450 22,600 -2,455 Descending Oakland Center
Wed 04:17:44 PM 37.7486 -120.6733 321° Northwest 380 437 20,100 -2,553 Descending Oakland Center
Wed 04:18:16 PM 37.8000 -120.7167 326° Northwest 369 425 18,600 -1,565 Descending Northern Cal TRACON
Wed 04:19:16 PM 37.8667 -120.8000 315° West 364 419 17,700 -867 Descending Northern Cal TRACON
Wed 04:19:46 PM 37.9072 -120.8314 329° Northwest 361 415 17,300 -923 Descending Oakland Center
Wed 04:20:47 PM 37.9839 -120.9108 321° Northwest 357 411 16,300 -634 Descending Oakland Center
Wed 04:21:49 PM 38.0614 -120.9886 322° Northwest 353 406 16,000 -146 Descending Oakland Center
Wed 04:22:50 PM 38.1469 -121.0433 333° Northwest 349 402 16,000  Level Oakland Center
Wed 04:23:51 PM 38.2156 -121.1336 314° West 354 407 16,000  Level Oakland Center
Wed 04:24:16 PM 38.2500 -121.2000 303° West 361 415 16,000 -565 Level Northern Cal TRACON
Wed 04:25:16 PM 38.3000 -121.3000 303° West 361 415 15,200 -830 Descending Northern Cal TRACON
Wed 04:26:55 PM 38.3878 -121.4492 307° West 356 410 13,800 -1,100 Descending Oakland Center
Wed 04:27:16 PM 38.4167 -121.5000 306° West 344 396 13,000 -2,148 Descending Northern Cal TRACON
Wed 04:28:16 PM 38.4833 -121.5833 316° Northwest 333 383 10,900 -1,950 Descending Northern Cal TRACON
Wed 04:29:16 PM 38.5500 -121.6333 330° Northwest 299 344 9,100 -1,806 Descending Northern Cal TRACON
Wed 04:29:59 PM 38.6036 -121.6753 329° Northwest 291 335 7,800 -2,077 Descending Oakland Center
Wed 04:31:00 PM 38.6764 -121.7011 345° North 277 319 5,500 -2,164 Descending Oakland Center
Wed 04:32:01 PM 38.7514 -121.7064 357° North 268 308 3,400 -1,220 Descending Oakland Center
Wed 04:33:03 PM 38.8200 -121.7108 357° North 256 295 3,000 -195 Descending Oakland Center
Wed 04:34:04 PM 38.8522 -121.6706 44° Northeast 221 254 3,000 -541 Level Oakland Center
Wed 04:35:05 PM 38.8236 -121.6136 123° Southeast 199 229 1,900 -683 Descending Oakland Center
Wed 04:36:07 PM 38.7881 -121.5794 143° Southeast 177 204 1,600 -488 Descending Oakland Center
Wed 04:37:08 PM 38.7528 -121.5806 181° South 146 168 900 -689 Descending Oakland Center
Wed 04:38:09 PM 38.7175 -121.5811 181° South 133 153 200 -689 Descending Oakland Center

Login

Don't have an account? Register now (free) for customized features, flight alerts, and more!